createdAt,value
2023-01-23T00:01:33.769Z,102341.27
2023-01-23T00:04:03.183Z,102340.14
2023-01-23T00:06:30.411Z,102347.09
2023-01-23T00:08:58.209Z,102347.10
2023-01-23T00:11:28.080Z,102349.40
2023-01-23T00:13:57.032Z,102358.71
2023-01-23T00:16:28.214Z,102361.31
2023-01-23T00:18:56.274Z,102360.70
2023-01-23T00:21:26.833Z,102369.38
2023-01-23T00:23:56.211Z,102368.02
2023-01-23T00:26:28.695Z,102371.59
2023-01-23T00:28:56.377Z,102371.36
2023-01-23T00:31:27.420Z,102373.05
2023-01-23T00:33:59.562Z,102374.72
2023-01-23T00:36:32.753Z,102371.55
2023-01-23T00:39:02.567Z,102369.92
2023-01-23T00:41:30.702Z,102370.73
2023-01-23T00:43:58.519Z,102373.02
2023-01-23T00:46:26.095Z,102371.41
2023-01-23T00:48:53.472Z,102367.67
2023-01-23T00:51:20.753Z,102369.05
2023-01-23T00:53:48.576Z,102370.71
2023-01-23T00:56:15.980Z,102370.26
2023-01-23T00:58:45.231Z,102366.26
2023-01-23T01:01:15.998Z,102368.59
2023-01-23T01:03:44.456Z,102370.48
2023-01-23T01:06:12.390Z,102368.73
2023-01-23T01:08:39.817Z,102368.90
2023-01-23T01:11:08.624Z,102367.35
2023-01-23T01:13:36.376Z,102367.54
2023-01-23T01:16:03.916Z,102366.55
2023-01-23T01:18:33.254Z,102367.48
2023-01-23T01:21:00.714Z,102366.38
2023-01-23T01:23:27.941Z,102365.98
2023-01-23T01:25:59.514Z,102363.28
2023-01-23T01:28:30.538Z,102372.34
2023-01-23T01:30:58.875Z,102368.59
2023-01-23T01:33:28.402Z,102370.45
2023-01-23T01:35:57.533Z,102372.23
2023-01-23T01:38:25.560Z,102376.48
2023-01-23T01:40:53.421Z,102378.05
2023-01-23T01:43:24.308Z,102378.27
2023-01-23T01:46:25.546Z,102381.17
2023-01-23T01:49:10.940Z,102384.88
2023-01-23T01:51:55.431Z,102387.65
2023-01-23T01:54:40.764Z,102386.05
2023-01-23T01:57:18.949Z,102393.29
2023-01-23T01:59:55.406Z,102392.64
2023-01-23T02:02:27.250Z,102397.25
2023-01-23T02:05:07.289Z,102404.23
2023-01-23T02:08:13.358Z,102409.89
2023-01-23T02:10:43.715Z,102406.81
2023-01-23T02:13:28.933Z,102412.39
2023-01-23T02:15:59.472Z,102412.72
2023-01-23T02:18:29.711Z,102412.57
2023-01-23T02:21:00.485Z,102410.80
2023-01-23T02:24:05.013Z,102407.96
2023-01-23T02:26:44.773Z,102404.59
2023-01-23T02:29:14.432Z,102406.40
2023-01-23T02:31:49.328Z,102400.95
2023-01-23T02:34:16.728Z,102393.55
2023-01-23T02:36:47.851Z,102399.35
2023-01-23T02:39:18.791Z,102400.55
2023-01-23T02:41:51.648Z,102404.23
2023-01-23T02:44:28.491Z,102404.50
2023-01-23T02:47:05.251Z,102402.52
2023-01-23T02:49:32.747Z,102398.13
2023-01-23T02:52:00.135Z,102397.38
2023-01-23T02:54:28.260Z,102398.69
2023-01-23T02:56:57.926Z,102395.09
2023-01-23T02:59:44.423Z,102391.80
2023-01-23T03:02:14.028Z,102390.51
2023-01-23T03:04:41.749Z,102393.70
2023-01-23T03:07:09.089Z,102392.48
2023-01-23T03:09:36.677Z,102392.41
2023-01-23T03:12:05.383Z,102396.23
2023-01-23T03:14:34.565Z,102396.50
2023-01-23T03:17:01.790Z,102394.44
2023-01-23T03:19:31.899Z,102393.97
2023-01-23T03:22:00.048Z,102398.20
2023-01-23T03:24:28.075Z,102400.33
2023-01-23T03:26:57.558Z,102406.98
2023-01-23T03:29:45.234Z,102404.73
2023-01-23T03:32:16.054Z,102406.04
2023-01-23T03:34:44.164Z,102409.61
2023-01-23T03:37:12.695Z,102414.41
2023-01-23T03:39:59.532Z,102422.55
2023-01-23T03:42:27.827Z,102426.06
2023-01-23T03:44:58.078Z,102428.84
2023-01-23T03:47:28.401Z,102436.23
2023-01-23T03:49:56.064Z,102441.06
2023-01-23T03:52:25.574Z,102444.23
2023-01-23T03:54:53.512Z,102443.23
2023-01-23T03:57:21.715Z,102441.46
2023-01-23T04:00:11.752Z,102439.14
2023-01-23T04:02:44.169Z,102442.80
2023-01-23T04:05:13.573Z,102447.39
2023-01-23T04:07:40.776Z,102452.41
2023-01-23T04:10:13.055Z,102455.83
2023-01-23T04:12:43.023Z,102461.66
2023-01-23T04:15:11.843Z,102462.20
2023-01-23T04:17:42.118Z,102466.84
2023-01-23T04:20:12.041Z,102465.07
2023-01-23T04:22:40.941Z,102471.35
2023-01-23T04:25:09.933Z,102468.92
2023-01-23T04:27:37.277Z,102471.88
2023-01-23T04:30:06.645Z,102470.52
2023-01-23T04:32:35.285Z,102469.60
2023-01-23T04:35:05.453Z,102466.30
2023-01-23T04:37:33.556Z,102465.08
2023-01-23T04:40:00.751Z,102472.16
2023-01-23T04:42:30.081Z,102473.86
2023-01-23T04:45:07.374Z,102472.64
2023-01-23T04:47:55.066Z,102471.38
2023-01-23T04:50:23.800Z,102471.61
2023-01-23T04:52:52.419Z,102470.68
2023-01-23T04:55:23.020Z,102473.29
2023-01-23T04:57:51.107Z,102473.35
2023-01-23T05:00:25.731Z,102476.69
2023-01-23T05:02:54.678Z,102481.27
2023-01-23T05:05:24.271Z,102481.33
2023-01-23T05:07:53.250Z,102484.70
2023-01-23T05:10:21.466Z,102492.80
2023-01-23T05:12:49.407Z,102497.11
2023-01-23T05:15:18.215Z,102505.95
2023-01-23T05:17:48.826Z,102507.92
2023-01-23T05:20:16.632Z,102508.95
2023-01-23T05:22:53.746Z,102508.55
2023-01-23T05:25:28.626Z,102507.11
2023-01-23T05:27:56.316Z,102512.66
2023-01-23T05:30:23.868Z,102514.66
2023-01-23T05:32:53.591Z,102517.04
2023-01-23T05:35:22.170Z,102525.33
2023-01-23T05:37:52.459Z,102527.27
2023-01-23T05:40:22.908Z,102527.29
2023-01-23T05:43:14.969Z,102527.35
2023-01-23T05:46:02.607Z,102530.92
2023-01-23T05:48:52.128Z,102531.23
2023-01-23T05:51:22.145Z,102533.12
2023-01-23T05:53:49.992Z,102541.15
2023-01-23T05:56:18.192Z,102539.98
2023-01-23T05:59:05.279Z,102544.42
2023-01-23T06:01:47.577Z,102547.12
2023-01-23T06:04:17.519Z,102551.63
2023-01-23T06:06:54.970Z,102553.69
2023-01-23T06:09:23.778Z,102558.52
2023-01-23T06:11:50.925Z,102558.48
2023-01-23T06:14:18.865Z,102562.86
2023-01-23T06:16:46.609Z,102567.58
2023-01-23T06:19:13.796Z,102571.52
2023-01-23T06:21:41.264Z,102573.44
2023-01-23T06:24:11.781Z,102578.83
2023-01-23T06:26:40.546Z,102582.13
2023-01-23T06:29:07.857Z,102579.55
2023-01-23T06:31:38.122Z,102586.90
2023-01-23T06:34:11.256Z,102591.33
2023-01-23T06:37:11.080Z,102593.14
2023-01-23T06:39:40.672Z,102587.52
2023-01-23T06:42:10.263Z,102590.88
2023-01-23T06:44:40.535Z,102592.70
2023-01-23T06:47:09.029Z,102598.23
2023-01-23T06:49:36.662Z,102603.83
2023-01-23T06:52:04.325Z,102601.63
2023-01-23T06:54:31.533Z,102605.42
2023-01-23T06:57:01.299Z,102606.09
2023-01-23T06:59:29.047Z,102613.50
2023-01-23T07:01:57.065Z,102619.17
2023-01-23T07:04:33.545Z,102621.05
2023-01-23T07:07:00.760Z,102627.21
2023-01-23T07:09:29.175Z,102628.04
2023-01-23T07:12:04.642Z,102629.17
2023-01-23T07:14:31.935Z,102631.14
2023-01-23T07:16:59.529Z,102631.52
2023-01-23T07:19:26.837Z,102634.32
2023-01-23T07:21:55.095Z,102635.86
2023-01-23T07:24:22.289Z,102631.55
2023-01-23T07:26:49.370Z,102627.70
2023-01-23T07:29:16.489Z,102616.94
2023-01-23T07:31:43.778Z,102610.20
2023-01-23T07:34:11.230Z,102611.30
2023-01-23T07:36:38.366Z,102612.02
2023-01-23T07:39:05.539Z,102614.34
2023-01-23T07:41:32.738Z,102619.38
2023-01-23T07:44:02.798Z,102613.31
2023-01-23T07:46:30.026Z,102611.64
2023-01-23T07:48:57.474Z,102613.84
2023-01-23T07:51:24.697Z,102611.83
2023-01-23T07:53:52.492Z,102614.70
2023-01-23T07:56:19.650Z,102619.27
2023-01-23T07:58:50.674Z,102619.04
2023-01-23T08:01:19.025Z,102616.01
2023-01-23T08:03:47.230Z,102620.64
2023-01-23T08:06:14.859Z,102622.42
2023-01-23T08:08:41.984Z,102627.17
2023-01-23T08:11:11.403Z,102635.14
2023-01-23T08:13:39.550Z,102636.12
2023-01-23T08:16:07.487Z,102639.15
2023-01-23T08:18:34.630Z,102640.06
2023-01-23T08:21:03.679Z,102638.77
2023-01-23T08:23:33.606Z,102638.77
2023-01-23T08:26:04.046Z,102635.77
2023-01-23T08:28:31.255Z,102640.23
2023-01-23T08:31:06.192Z,102646.84
2023-01-23T08:33:35.748Z,102652.24
2023-01-23T08:36:04.831Z,102658.74
2023-01-23T08:38:32.549Z,102662.25
2023-01-23T08:41:03.263Z,102669.51
2023-01-23T08:43:31.214Z,102669.98
2023-01-23T08:45:59.670Z,102671.30
2023-01-23T08:48:28.460Z,102672.47
2023-01-23T08:51:05.481Z,102676.63
2023-01-23T08:53:33.887Z,102676.47
2023-01-23T08:56:16.565Z,102675.16
2023-01-23T08:58:45.288Z,102676.36
2023-01-23T09:01:22.686Z,102679.30
2023-01-23T09:03:50.315Z,102683.51
2023-01-23T09:06:19.890Z,102680.14
2023-01-23T09:08:47.666Z,102680.31
2023-01-23T09:11:16.571Z,102684.23
2023-01-23T09:13:46.336Z,102690.38
2023-01-23T09:16:15.042Z,102689.85
2023-01-23T09:18:42.341Z,102689.52
2023-01-23T09:21:12.730Z,102687.75
2023-01-23T09:23:40.853Z,102690.86
2023-01-23T09:26:11.680Z,102688.89
2023-01-23T09:28:42.269Z,102686.03
2023-01-23T09:31:12.744Z,102687.77
2023-01-23T09:33:40.980Z,102691.03
2023-01-23T09:36:10.030Z,102694.05
2023-01-23T09:38:38.854Z,102700.51
2023-01-23T09:41:20.781Z,102700.86
2023-01-23T09:44:11.905Z,102701.45
2023-01-23T09:50:07.518Z,102699.48
2023-01-23T09:53:02.061Z,102692.89
2023-01-23T09:56:18.516Z,102694.64
2023-01-23T09:59:37.597Z,102698.04
2023-01-23T10:02:26.784Z,102693.95
2023-01-23T10:05:04.969Z,102690.65
2023-01-23T10:08:10.202Z,102689.67
2023-01-23T10:29:55.927Z,102706.56
2023-01-23T10:36:54.071Z,102711.65
2023-01-23T10:40:09.534Z,102710.98
2023-01-23T10:42:47.861Z,102707.56
2023-01-23T10:45:30.095Z,102706.71
2023-01-23T10:48:47.441Z,102705.11
2023-01-23T10:51:29.527Z,102702.23
2023-01-23T10:54:31.835Z,102695.66
2023-01-23T10:57:04.920Z,102694.05
2023-01-23T11:00:09.934Z,102696.71
2023-01-23T11:02:52.292Z,102690.40
2023-01-23T11:05:52.585Z,102689.20
2023-01-23T11:08:30.118Z,102684.73
2023-01-23T11:11:31.133Z,102687.92
2023-01-23T11:14:27.275Z,102685.61
2023-01-23T11:17:34.936Z,102678.54
2023-01-23T11:20:25.718Z,102674.10
2023-01-23T11:26:38.353Z,102676.08
2023-01-23T12:13:35.021Z,102660.81
2023-01-23T12:32:11.470Z,102656.06
2023-01-23T12:35:07.830Z,102653.30
2023-01-23T12:37:54.733Z,102652.73
2023-01-23T12:40:34.773Z,102652.02
2023-01-23T12:43:18.298Z,102646.83
2023-01-23T12:45:52.715Z,102646.92
2023-01-23T12:48:30.942Z,102653.48
2023-01-23T12:51:10.238Z,102657.20
2023-01-23T12:53:43.733Z,102657.40
2023-01-23T12:56:17.595Z,102658.14
2023-01-23T12:58:54.209Z,102657.23
2023-01-23T13:01:42.613Z,102661.66
2023-01-23T13:04:23.895Z,102661.53
2023-01-23T13:06:54.508Z,102667.74
2023-01-23T13:09:51.554Z,102668.82
2023-01-23T13:12:25.779Z,102671.95
2023-01-23T13:15:30.934Z,102667.98
2023-01-23T13:18:03.416Z,102667.27
2023-01-23T13:20:55.836Z,102671.55
2023-01-23T13:23:43.571Z,102669.02
2023-01-23T13:26:16.931Z,102669.52
2023-01-23T13:28:56.100Z,102665.50
2023-01-23T13:31:34.849Z,102667.80
2023-01-23T13:34:24.366Z,102665.17
2023-01-23T13:36:53.655Z,102669.30
2023-01-23T13:39:27.354Z,102666.10
2023-01-23T13:42:15.645Z,102665.27
2023-01-23T13:45:26.790Z,102660.42
2023-01-23T14:20:18.813Z,102670.83
2023-01-23T14:22:46.092Z,102672.05
2023-01-23T14:25:18.129Z,102670.86
2023-01-23T14:27:53.670Z,102667.72
2023-01-23T14:30:27.539Z,102667.73
2023-01-23T14:32:56.244Z,102672.21
2023-01-23T14:35:32.715Z,102674.33
2023-01-23T14:38:06.839Z,102670.00
2023-01-23T14:40:49.400Z,102669.36
2023-01-23T14:43:24.960Z,102673.70
2023-01-23T14:46:01.904Z,102676.13
2023-01-23T14:48:35.546Z,102678.12
2023-01-23T14:51:07.949Z,102677.58
2023-01-23T14:53:40.353Z,102680.67
2023-01-23T14:56:11.261Z,102682.80
2023-01-23T14:58:39.668Z,102684.59
2023-01-23T15:01:07.018Z,102685.14
2023-01-23T15:03:40.960Z,102681.41
2023-01-23T15:06:14.917Z,102681.91
2023-01-23T15:08:43.437Z,102686.19
2023-01-23T15:11:12.689Z,102680.05
2023-01-23T15:13:41.959Z,102682.96
2023-01-23T15:16:20.094Z,102684.05
2023-01-23T15:19:01.629Z,102685.77
2023-01-23T15:21:32.282Z,102687.65
2023-01-23T15:24:03.474Z,102692.06
2023-01-23T15:26:36.267Z,102696.42
2023-01-23T15:29:09.480Z,102699.02
2023-01-23T15:31:39.172Z,102699.94
2023-01-23T15:34:16.534Z,102708.39
2023-01-23T15:36:49.760Z,102709.29
2023-01-23T15:39:58.567Z,102708.48
2023-01-23T15:42:37.727Z,102710.98
2023-01-23T15:45:14.965Z,102716.06
2023-01-23T15:47:43.342Z,102714.77
2023-01-23T15:50:14.731Z,102715.23
2023-01-23T15:52:46.792Z,102714.85
2023-01-23T15:55:16.344Z,102714.42
2023-01-23T15:57:45.015Z,102716.13
2023-01-23T16:00:20.650Z,102722.69
2023-01-23T16:02:56.873Z,102725.15
2023-01-23T16:05:30.031Z,102728.88
2023-01-23T16:08:06.332Z,102725.61
2023-01-23T16:10:45.289Z,102727.73
2023-01-23T16:13:14.773Z,102729.04
2023-01-23T16:15:46.216Z,102728.70
2023-01-23T16:18:14.698Z,102732.79
2023-01-23T16:20:45.410Z,102736.81
2023-01-23T16:23:20.806Z,102739.98
2023-01-23T16:25:50.773Z,102740.03
2023-01-23T16:28:21.560Z,102744.52
2023-01-23T16:30:51.665Z,102741.05
2023-01-23T16:33:20.766Z,102743.98
2023-01-23T16:35:52.005Z,102747.21
2023-01-23T16:38:28.645Z,102745.77
2023-01-23T16:40:59.751Z,102746.11
2023-01-23T16:43:27.918Z,102746.72
2023-01-23T16:45:57.262Z,102751.98
2023-01-23T16:48:28.249Z,102751.34
2023-01-23T16:51:04.978Z,102757.27
2023-01-23T16:53:40.265Z,102756.70
2023-01-23T16:56:22.213Z,102757.02
2023-01-23T16:58:51.051Z,102762.20
2023-01-23T17:01:23.385Z,102763.08
2023-01-23T17:04:05.293Z,102771.38
2023-01-23T17:06:32.780Z,102771.73
2023-01-23T17:09:01.478Z,102773.27
2023-01-23T17:11:36.572Z,102773.29
2023-01-23T17:17:52.642Z,102771.91
2023-01-23T17:20:32.743Z,102770.23
2023-01-23T17:23:19.028Z,102765.11
2023-01-23T17:26:01.525Z,102766.30
2023-01-23T17:28:49.928Z,102765.17
2023-01-23T17:31:31.044Z,102765.23
2023-01-23T17:34:45.139Z,102767.23
2023-01-23T17:40:49.289Z,102774.05
